Ext Mans San German, Puerto Rico
Current Conditions -  °F | °C
As of 4:50 PM on Thursday 20 Nov 2014 (Local Time) from TJBQ Reporting Station
Broken Clouds Broken Clouds  
Wind Chill: 81°   Ceiling: 5000
Heat Index: 85°   Visibility: 10mi
Dew Point: 73°   Wind: 7mph
Humidity: 79%   Direction: 100°E
Pressure: 29.96"   Gusts: NA
Location:  18.0846°N, 67.0463°W
Report Text: TJBQ 202050Z 10006KT 10SM BKN050 27/23 A2996 RMK RWY08 ATIS H
Loading
Personal Weather Stations






























Interactive Weather Map New forecast layout! Learn more

10-Day Weather Forecast

Advertisements
Track Severe Weather on mobile